sensor_id;sensor_type;location;lat;lon;timestamp;P1;durP1;ratioP1;P2;durP2;ratioP2
81529;SDS011;70974;45.808;15.808;2023-07-08T00:01:17;8.93;;;5.78;;
81529;SDS011;70974;45.808;15.808;2023-07-08T00:03:43;8.10;;;5.28;;
81529;SDS011;70974;45.808;15.808;2023-07-08T00:06:27;8.27;;;4.72;;
81529;SDS011;70974;45.808;15.808;2023-07-08T00:08:53;8.95;;;4.22;;
81529;SDS011;70974;45.808;15.808;2023-07-08T00:11:20;7.35;;;4.68;;
81529;SDS011;70974;45.808;15.808;2023-07-08T00:13:46;6.43;;;4.55;;
81529;SDS011;70974;45.808;15.808;2023-07-08T00:16:13;7.40;;;4.53;;
81529;SDS011;70974;45.808;15.808;2023-07-08T00:18:40;7.20;;;3.95;;
81529;SDS011;70974;45.808;15.808;2023-07-08T00:21:10;8.20;;;4.28;;
81529;SDS011;70974;45.808;15.808;2023-07-08T00:23:39;7.70;;;4.15;;
81529;SDS011;70974;45.808;15.808;2023-07-08T00:26:13;11.32;;;4.80;;
81529;SDS011;70974;45.808;15.808;2023-07-08T00:28:41;7.20;;;4.68;;
81529;SDS011;70974;45.808;15.808;2023-07-08T00:31:09;7.85;;;4.95;;
81529;SDS011;70974;45.808;15.808;2023-07-08T00:33:36;8.10;;;4.97;;
81529;SDS011;70974;45.808;15.808;2023-07-08T00:36:05;11.57;;;5.22;;
81529;SDS011;70974;45.808;15.808;2023-07-08T00:38:34;8.82;;;5.10;;
81529;SDS011;70974;45.808;15.808;2023-07-08T00:41:06;9.13;;;4.72;;
81529;SDS011;70974;45.808;15.808;2023-07-08T00:46:09;9.60;;;5.28;;
81529;SDS011;70974;45.808;15.808;2023-07-08T00:48:39;7.72;;;4.82;;
81529;SDS011;70974;45.808;15.808;2023-07-08T00:51:07;8.93;;;5.53;;
81529;SDS011;70974;45.808;15.808;2023-07-08T00:53:35;8.43;;;5.25;;
81529;SDS011;70974;45.808;15.808;2023-07-08T00:56:13;9.77;;;5.50;;
81529;SDS011;70974;45.808;15.808;2023-07-08T00:58:42;8.10;;;4.93;;
81529;SDS011;70974;45.808;15.808;2023-07-08T01:03:40;8.02;;;5.30;;
81529;SDS011;70974;45.808;15.808;2023-07-08T01:06:09;8.48;;;5.80;;
81529;SDS011;70974;45.808;15.808;2023-07-08T01:08:35;11.63;;;6.15;;
81529;SDS011;70974;45.808;15.808;2023-07-08T01:11:01;9.48;;;5.70;;
81529;SDS011;70974;45.808;15.808;2023-07-08T01:13:30;9.65;;;6.05;;
81529;SDS011;70974;45.808;15.808;2023-07-08T01:15:57;9.40;;;5.50;;
81529;SDS011;70974;45.808;15.808;2023-07-08T01:18:24;9.13;;;5.30;;
81529;SDS011;70974;45.808;15.808;2023-07-08T01:20:50;8.60;;;5.72;;
81529;SDS011;70974;45.808;15.808;2023-07-08T01:23:20;9.18;;;5.68;;
81529;SDS011;70974;45.808;15.808;2023-07-08T01:25:46;8.23;;;5.55;;
81529;SDS011;70974;45.808;15.808;2023-07-08T01:28:13;11.02;;;5.53;;
81529;SDS011;70974;45.808;15.808;2023-07-08T01:30:42;10.63;;;5.55;;
81529;SDS011;70974;45.808;15.808;2023-07-08T01:33:12;10.07;;;5.30;;
81529;SDS011;70974;45.808;15.808;2023-07-08T01:35:42;9.73;;;5.50;;
81529;SDS011;70974;45.808;15.808;2023-07-08T01:38:09;10.90;;;5.65;;
81529;SDS011;70974;45.808;15.808;2023-07-08T01:40:36;8.30;;;5.35;;
81529;SDS011;70974;45.808;15.808;2023-07-08T01:43:03;9.38;;;5.43;;
81529;SDS011;70974;45.808;15.808;2023-07-08T01:45:34;11.27;;;5.82;;
81529;SDS011;70974;45.808;15.808;2023-07-08T01:48:04;9.82;;;5.68;;
81529;SDS011;70974;45.808;15.808;2023-07-08T01:50:31;8.95;;;4.93;;
81529;SDS011;70974;45.808;15.808;2023-07-08T01:52:59;9.30;;;5.63;;
81529;SDS011;70974;45.808;15.808;2023-07-08T01:55:26;8.18;;;5.65;;
81529;SDS011;70974;45.808;15.808;2023-07-08T01:57:56;9.50;;;5.32;;
81529;SDS011;70974;45.808;15.808;2023-07-08T02:00:23;8.65;;;5.22;;
81529;SDS011;70974;45.808;15.808;2023-07-08T02:02:49;7.47;;;4.70;;
81529;SDS011;70974;45.808;15.808;2023-07-08T02:05:16;8.27;;;5.10;;
81529;SDS011;70974;45.808;15.808;2023-07-08T02:07:42;9.80;;;4.75;;
81529;SDS011;70974;45.808;15.808;2023-07-08T02:10:08;8.30;;;4.95;;
81529;SDS011;70974;45.808;15.808;2023-07-08T02:12:34;8.73;;;4.85;;
81529;SDS011;70974;45.808;15.808;2023-07-08T02:15:00;8.38;;;5.28;;
81529;SDS011;70974;45.808;15.808;2023-07-08T02:17:27;8.43;;;5.15;;
81529;SDS011;70974;45.808;15.808;2023-07-08T02:19:54;7.25;;;5.20;;
81529;SDS011;70974;45.808;15.808;2023-07-08T02:22:20;9.05;;;5.38;;
81529;SDS011;70974;45.808;15.808;2023-07-08T02:24:46;9.48;;;5.22;;
81529;SDS011;70974;45.808;15.808;2023-07-08T02:27:13;8.85;;;5.85;;
81529;SDS011;70974;45.808;15.808;2023-07-08T02:29:39;8.13;;;5.25;;
81529;SDS011;70974;45.808;15.808;2023-07-08T02:32:05;10.13;;;6.18;;
81529;SDS011;70974;45.808;15.808;2023-07-08T02:34:31;8.75;;;5.72;;
81529;SDS011;70974;45.808;15.808;2023-07-08T02:36:58;8.65;;;5.82;;
81529;SDS011;70974;45.808;15.808;2023-07-08T02:39:24;9.20;;;5.40;;
81529;SDS011;70974;45.808;15.808;2023-07-08T02:41:50;8.77;;;5.60;;
81529;SDS011;70974;45.808;15.808;2023-07-08T02:44:16;11.15;;;5.55;;
81529;SDS011;70974;45.808;15.808;2023-07-08T02:46:42;9.40;;;5.13;;
81529;SDS011;70974;45.808;15.808;2023-07-08T02:49:08;8.02;;;5.18;;
81529;SDS011;70974;45.808;15.808;2023-07-08T02:51:34;8.80;;;5.22;;
81529;SDS011;70974;45.808;15.808;2023-07-08T02:54:00;8.43;;;5.43;;
81529;SDS011;70974;45.808;15.808;2023-07-08T02:56:26;9.57;;;5.05;;
81529;SDS011;70974;45.808;15.808;2023-07-08T02:58:52;8.30;;;5.43;;
81529;SDS011;70974;45.808;15.808;2023-07-08T03:01:18;6.65;;;4.68;;
81529;SDS011;70974;45.808;15.808;2023-07-08T03:03:45;7.68;;;5.07;;
81529;SDS011;70974;45.808;15.808;2023-07-08T03:06:11;7.68;;;4.93;;
81529;SDS011;70974;45.808;15.808;2023-07-08T03:08:38;7.25;;;4.78;;
81529;SDS011;70974;45.808;15.808;2023-07-08T03:11:05;8.05;;;5.10;;
81529;SDS011;70974;45.808;15.808;2023-07-08T03:13:32;9.60;;;5.32;;
81529;SDS011;70974;45.808;15.808;2023-07-08T03:15:59;8.45;;;5.22;;
81529;SDS011;70974;45.808;15.808;2023-07-08T03:18:25;6.93;;;4.85;;
81529;SDS011;70974;45.808;15.808;2023-07-08T03:20:52;8.60;;;4.72;;
81529;SDS011;70974;45.808;15.808;2023-07-08T03:23:20;7.28;;;5.05;;
81529;SDS011;70974;45.808;15.808;2023-07-08T03:25:46;7.82;;;5.20;;
81529;SDS011;70974;45.808;15.808;2023-07-08T03:28:13;7.55;;;4.55;;
81529;SDS011;70974;45.808;15.808;2023-07-08T03:30:43;7.40;;;4.38;;
81529;SDS011;70974;45.808;15.808;2023-07-08T03:33:10;7.85;;;4.88;;
81529;SDS011;70974;45.808;15.808;2023-07-08T03:35:36;9.25;;;4.93;;
81529;SDS011;70974;45.808;15.808;2023-07-08T03:38:04;8.80;;;4.85;;
81529;SDS011;70974;45.808;15.808;2023-07-08T03:40:30;6.80;;;4.85;;
81529;SDS011;70974;45.808;15.808;2023-07-08T03:42:56;6.90;;;4.82;;
81529;SDS011;70974;45.808;15.808;2023-07-08T03:45:22;6.90;;;4.78;;
81529;SDS011;70974;45.808;15.808;2023-07-08T03:47:49;6.07;;;4.38;;
81529;SDS011;70974;45.808;15.808;2023-07-08T03:50:19;9.30;;;4.85;;
81529;SDS011;70974;45.808;15.808;2023-07-08T03:52:46;7.35;;;4.97;;
81529;SDS011;70974;45.808;15.808;2023-07-08T03:55:12;11.95;;;5.18;;
81529;SDS011;70974;45.808;15.808;2023-07-08T03:57:39;7.75;;;4.82;;
81529;SDS011;70974;45.808;15.808;2023-07-08T04:00:05;11.88;;;5.25;;
81529;SDS011;70974;45.808;15.808;2023-07-08T04:02:35;7.97;;;4.63;;
81529;SDS011;70974;45.808;15.808;2023-07-08T04:05:01;7.60;;;4.95;;
81529;SDS011;70974;45.808;15.808;2023-07-08T04:07:27;9.55;;;5.28;;
81529;SDS011;70974;45.808;15.808;2023-07-08T04:09:53;7.10;;;4.78;;
81529;SDS011;70974;45.808;15.808;2023-07-08T04:12:19;9.48;;;4.90;;
81529;SDS011;70974;45.808;15.808;2023-07-08T04:14:46;7.40;;;5.03;;
81529;SDS011;70974;45.808;15.808;2023-07-08T04:17:12;8.60;;;4.80;;
81529;SDS011;70974;45.808;15.808;2023-07-08T04:19:38;6.93;;;4.78;;
81529;SDS011;70974;45.808;15.808;2023-07-08T04:22:04;7.90;;;4.78;;
81529;SDS011;70974;45.808;15.808;2023-07-08T04:24:31;6.90;;;4.47;;
81529;SDS011;70974;45.808;15.808;2023-07-08T04:26:57;8.93;;;5.00;;
81529;SDS011;70974;45.808;15.808;2023-07-08T04:29:24;7.72;;;4.68;;
81529;SDS011;70974;45.808;15.808;2023-07-08T04:31:50;6.90;;;4.25;;
81529;SDS011;70974;45.808;15.808;2023-07-08T04:34:16;7.32;;;4.70;;
81529;SDS011;70974;45.808;15.808;2023-07-08T04:36:42;6.70;;;5.10;;
81529;SDS011;70974;45.808;15.808;2023-07-08T04:39:09;8.02;;;4.45;;
81529;SDS011;70974;45.808;15.808;2023-07-08T04:41:38;6.97;;;4.50;;
81529;SDS011;70974;45.808;15.808;2023-07-08T04:44:08;8.15;;;4.50;;
81529;SDS011;70974;45.808;15.808;2023-07-08T04:46:37;7.03;;;4.53;;
81529;SDS011;70974;45.808;15.808;2023-07-08T04:49:04;8.48;;;4.78;;
81529;SDS011;70974;45.808;15.808;2023-07-08T04:51:31;8.30;;;4.35;;
81529;SDS011;70974;45.808;15.808;2023-07-08T04:53:57;6.40;;;4.50;;
81529;SDS011;70974;45.808;15.808;2023-07-08T04:56:25;6.57;;;3.95;;
81529;SDS011;70974;45.808;15.808;2023-07-08T04:58:51;9.80;;;4.30;;
81529;SDS011;70974;45.808;15.808;2023-07-08T05:01:17;6.35;;;4.28;;
81529;SDS011;70974;45.808;15.808;2023-07-08T05:03:43;7.32;;;4.22;;
81529;SDS011;70974;45.808;15.808;2023-07-08T05:06:10;8.43;;;4.38;;
81529;SDS011;70974;45.808;15.808;2023-07-08T05:08:36;6.32;;;3.90;;
81529;SDS011;70974;45.808;15.808;2023-07-08T05:11:02;7.00;;;4.00;;
81529;SDS011;70974;45.808;15.808;2023-07-08T05:13:28;7.45;;;4.63;;
81529;SDS011;70974;45.808;15.808;2023-07-08T05:15:54;5.68;;;3.90;;
81529;SDS011;70974;45.808;15.808;2023-07-08T05:18:20;7.60;;;4.38;;
81529;SDS011;70974;45.808;15.808;2023-07-08T05:20:50;6.65;;;4.15;;
81529;SDS011;70974;45.808;15.808;2023-07-08T05:23:16;7.88;;;4.30;;
81529;SDS011;70974;45.808;15.808;2023-07-08T05:25:43;13.00;;;4.18;;
81529;SDS011;70974;45.808;15.808;2023-07-08T05:28:09;5.63;;;4.00;;
81529;SDS011;70974;45.808;15.808;2023-07-08T05:30:35;6.15;;;4.18;;
81529;SDS011;70974;45.808;15.808;2023-07-08T05:33:01;9.02;;;4.72;;
81529;SDS011;70974;45.808;15.808;2023-07-08T05:35:27;7.72;;;4.18;;
81529;SDS011;70974;45.808;15.808;2023-07-08T05:37:53;8.48;;;4.32;;
81529;SDS011;70974;45.808;15.808;2023-07-08T05:40:19;8.60;;;4.65;;
81529;SDS011;70974;45.808;15.808;2023-07-08T05:42:45;7.93;;;4.13;;
81529;SDS011;70974;45.808;15.808;2023-07-08T05:45:11;9.70;;;4.70;;
81529;SDS011;70974;45.808;15.808;2023-07-08T05:47:37;7.90;;;4.30;;
81529;SDS011;70974;45.808;15.808;2023-07-08T05:50:03;6.15;;;4.00;;
81529;SDS011;70974;45.808;15.808;2023-07-08T05:52:29;10.90;;;4.47;;
81529;SDS011;70974;45.808;15.808;2023-07-08T05:54:56;9.77;;;4.80;;
81529;SDS011;70974;45.808;15.808;2023-07-08T05:57:22;10.38;;;4.50;;
81529;SDS011;70974;45.808;15.808;2023-07-08T05:59:48;8.68;;;4.72;;
81529;SDS011;70974;45.808;15.808;2023-07-08T06:02:15;7.47;;;3.95;;
81529;SDS011;70974;45.808;15.808;2023-07-08T06:04:42;8.60;;;4.47;;
81529;SDS011;70974;45.808;15.808;2023-07-08T06:07:08;7.47;;;4.40;;
81529;SDS011;70974;45.808;15.808;2023-07-08T06:09:34;8.00;;;4.40;;
81529;SDS011;70974;45.808;15.808;2023-07-08T06:12:00;10.48;;;4.95;;
81529;SDS011;70974;45.808;15.808;2023-07-08T06:14:27;8.02;;;4.22;;
81529;SDS011;70974;45.808;15.808;2023-07-08T06:16:53;7.13;;;4.30;;
81529;SDS011;70974;45.808;15.808;2023-07-08T06:19:20;6.10;;;4.35;;
81529;SDS011;70974;45.808;15.808;2023-07-08T06:21:46;5.40;;;4.30;;
81529;SDS011;70974;45.808;15.808;2023-07-08T06:24:12;6.18;;;4.25;;
81529;SDS011;70974;45.808;15.808;2023-07-08T06:26:38;8.93;;;4.43;;
81529;SDS011;70974;45.808;15.808;2023-07-08T06:29:04;6.72;;;4.32;;
81529;SDS011;70974;45.808;15.808;2023-07-08T06:31:30;6.35;;;4.30;;
81529;SDS011;70974;45.808;15.808;2023-07-08T06:33:56;6.75;;;4.35;;
81529;SDS011;70974;45.808;15.808;2023-07-08T06:36:22;7.40;;;4.75;;
81529;SDS011;70974;45.808;15.808;2023-07-08T06:38:48;7.80;;;4.25;;
81529;SDS011;70974;45.808;15.808;2023-07-08T06:41:14;9.57;;;4.80;;
81529;SDS011;70974;45.808;15.808;2023-07-08T06:43:40;7.00;;;4.45;;
81529;SDS011;70974;45.808;15.808;2023-07-08T06:46:06;5.50;;;4.00;;
81529;SDS011;70974;45.808;15.808;2023-07-08T06:48:32;6.97;;;4.72;;
81529;SDS011;70974;45.808;15.808;2023-07-08T06:50:58;7.93;;;4.47;;
81529;SDS011;70974;45.808;15.808;2023-07-08T06:53:24;7.43;;;4.50;;
81529;SDS011;70974;45.808;15.808;2023-07-08T06:55:50;7.55;;;4.20;;
81529;SDS011;70974;45.808;15.808;2023-07-08T06:58:16;9.32;;;4.70;;
81529;SDS011;70974;45.808;15.808;2023-07-08T07:00:43;7.93;;;5.07;;
81529;SDS011;70974;45.808;15.808;2023-07-08T07:03:09;7.18;;;4.60;;
81529;SDS011;70974;45.808;15.808;2023-07-08T07:05:35;5.93;;;4.07;;
81529;SDS011;70974;45.808;15.808;2023-07-08T07:08:01;7.65;;;4.80;;
81529;SDS011;70974;45.808;15.808;2023-07-08T07:10:27;7.93;;;4.75;;
81529;SDS011;70974;45.808;15.808;2023-07-08T07:12:53;9.13;;;4.35;;
81529;SDS011;70974;45.808;15.808;2023-07-08T07:15:19;7.00;;;4.82;;
81529;SDS011;70974;45.808;15.808;2023-07-08T07:17:45;5.78;;;4.70;;
81529;SDS011;70974;45.808;15.808;2023-07-08T07:20:12;8.00;;;4.25;;
81529;SDS011;70974;45.808;15.808;2023-07-08T07:22:38;7.78;;;4.78;;
81529;SDS011;70974;45.808;15.808;2023-07-08T07:25:04;7.78;;;4.65;;
81529;SDS011;70974;45.808;15.808;2023-07-08T07:27:30;5.75;;;4.20;;
81529;SDS011;70974;45.808;15.808;2023-07-08T07:29:56;7.40;;;4.60;;
81529;SDS011;70974;45.808;15.808;2023-07-08T07:32:24;7.50;;;4.72;;
81529;SDS011;70974;45.808;15.808;2023-07-08T07:34:51;6.40;;;4.55;;
81529;SDS011;70974;45.808;15.808;2023-07-08T07:37:18;7.55;;;4.45;;
81529;SDS011;70974;45.808;15.808;2023-07-08T07:39:44;6.82;;;4.50;;
81529;SDS011;70974;45.808;15.808;2023-07-08T07:42:10;8.18;;;4.43;;
81529;SDS011;70974;45.808;15.808;2023-07-08T07:44:36;6.75;;;4.05;;
81529;SDS011;70974;45.808;15.808;2023-07-08T07:47:06;6.82;;;4.75;;
81529;SDS011;70974;45.808;15.808;2023-07-08T07:49:32;6.18;;;4.43;;
81529;SDS011;70974;45.808;15.808;2023-07-08T07:51:58;8.05;;;4.57;;
81529;SDS011;70974;45.808;15.808;2023-07-08T07:54:25;9.15;;;5.00;;
81529;SDS011;70974;45.808;15.808;2023-07-08T07:56:51;5.93;;;4.03;;
81529;SDS011;70974;45.808;15.808;2023-07-08T07:59:17;6.18;;;4.70;;
81529;SDS011;70974;45.808;15.808;2023-07-08T08:01:43;6.80;;;4.45;;
81529;SDS011;70974;45.808;15.808;2023-07-08T08:04:09;7.28;;;4.65;;
81529;SDS011;70974;45.808;15.808;2023-07-08T08:06:36;6.65;;;4.53;;
81529;SDS011;70974;45.808;15.808;2023-07-08T08:09:02;9.30;;;4.32;;
81529;SDS011;70974;45.808;15.808;2023-07-08T08:11:29;9.55;;;5.03;;
81529;SDS011;70974;45.808;15.808;2023-07-08T08:13:55;7.22;;;4.80;;
81529;SDS011;70974;45.808;15.808;2023-07-08T08:16:21;9.98;;;4.70;;
81529;SDS011;70974;45.808;15.808;2023-07-08T08:18:47;10.82;;;4.72;;
81529;SDS011;70974;45.808;15.808;2023-07-08T08:21:13;6.55;;;4.65;;
81529;SDS011;70974;45.808;15.808;2023-07-08T08:23:39;8.95;;;4.40;;
81529;SDS011;70974;45.808;15.808;2023-07-08T08:26:05;8.38;;;4.82;;
81529;SDS011;70974;45.808;15.808;2023-07-08T08:28:31;7.53;;;4.40;;
81529;SDS011;70974;45.808;15.808;2023-07-08T08:30:57;9.07;;;4.75;;
81529;SDS011;70974;45.808;15.808;2023-07-08T08:33:23;6.40;;;4.40;;
81529;SDS011;70974;45.808;15.808;2023-07-08T08:35:49;7.88;;;4.55;;
81529;SDS011;70974;45.808;15.808;2023-07-08T08:38:15;11.45;;;5.32;;
81529;SDS011;70974;45.808;15.808;2023-07-08T08:40:42;9.85;;;4.57;;
81529;SDS011;70974;45.808;15.808;2023-07-08T08:43:12;8.57;;;4.45;;
81529;SDS011;70974;45.808;15.808;2023-07-08T08:45:41;9.00;;;4.30;;
81529;SDS011;70974;45.808;15.808;2023-07-08T08:48:10;6.97;;;4.55;;
81529;SDS011;70974;45.808;15.808;2023-07-08T08:50:39;6.60;;;4.15;;
81529;SDS011;70974;45.808;15.808;2023-07-08T08:53:09;6.95;;;3.90;;
81529;SDS011;70974;45.808;15.808;2023-07-08T08:55:36;10.60;;;4.10;;
81529;SDS011;70974;45.808;15.808;2023-07-08T09:06:13;6.22;;;4.40;;
81529;SDS011;70974;45.808;15.808;2023-07-08T09:08:40;7.28;;;4.35;;
81529;SDS011;70974;45.808;15.808;2023-07-08T09:13:45;5.68;;;3.72;;
81529;SDS011;70974;45.808;15.808;2023-07-08T09:16:19;8.73;;;4.43;;
81529;SDS011;70974;45.808;15.808;2023-07-08T09:21:19;5.85;;;4.03;;
81529;SDS011;70974;45.808;15.808;2023-07-08T09:23:47;5.43;;;3.58;;
81529;SDS011;70974;45.808;15.808;2023-07-08T09:26:15;5.20;;;4.00;;
81529;SDS011;70974;45.808;15.808;2023-07-08T09:28:43;5.22;;;3.72;;
81529;SDS011;70974;45.808;15.808;2023-07-08T09:31:22;6.28;;;3.92;;
81529;SDS011;70974;45.808;15.808;2023-07-08T09:33:50;6.80;;;4.28;;
81529;SDS011;70974;45.808;15.808;2023-07-08T09:36:17;6.80;;;4.40;;
81529;SDS011;70974;45.808;15.808;2023-07-08T09:38:46;6.40;;;4.28;;
81529;SDS011;70974;45.808;15.808;2023-07-08T09:41:13;4.82;;;3.33;;
81529;SDS011;70974;45.808;15.808;2023-07-08T09:43:39;6.90;;;3.95;;
81529;SDS011;70974;45.808;15.808;2023-07-08T09:46:05;6.63;;;4.07;;
81529;SDS011;70974;45.808;15.808;2023-07-08T09:48:36;7.07;;;4.30;;
81529;SDS011;70974;45.808;15.808;2023-07-08T09:51:02;6.85;;;4.60;;
81529;SDS011;70974;45.808;15.808;2023-07-08T09:53:29;7.18;;;3.92;;
81529;SDS011;70974;45.808;15.808;2023-07-08T09:55:59;7.32;;;4.13;;
81529;SDS011;70974;45.808;15.808;2023-07-08T09:58:28;6.75;;;4.20;;
81529;SDS011;70974;45.808;15.808;2023-07-08T10:00:57;6.18;;;4.00;;
81529;SDS011;70974;45.808;15.808;2023-07-08T10:03:25;5.43;;;3.90;;
81529;SDS011;70974;45.808;15.808;2023-07-08T10:08:19;6.60;;;4.20;;
81529;SDS011;70974;45.808;15.808;2023-07-08T10:10:46;5.68;;;3.88;;
81529;SDS011;70974;45.808;15.808;2023-07-08T10:15:43;7.15;;;3.88;;
81529;SDS011;70974;45.808;15.808;2023-07-08T10:18:12;6.28;;;4.30;;
81529;SDS011;70974;45.808;15.808;2023-07-08T10:20:43;7.25;;;3.95;;
81529;SDS011;70974;45.808;15.808;2023-07-08T10:23:18;5.13;;;3.88;;
81529;SDS011;70974;45.808;15.808;2023-07-08T10:25:58;6.30;;;3.78;;
81529;SDS011;70974;45.808;15.808;2023-07-08T10:31:10;5.00;;;3.75;;
81529;SDS011;70974;45.808;15.808;2023-07-08T10:41:01;5.32;;;3.80;;
81529;SDS011;70974;45.808;15.808;2023-07-08T10:48:44;5.10;;;3.58;;
81529;SDS011;70974;45.808;15.808;2023-07-08T10:51:16;6.05;;;3.25;;
81529;SDS011;70974;45.808;15.808;2023-07-08T10:56:33;5.95;;;3.63;;
81529;SDS011;70974;45.808;15.808;2023-07-08T11:01:55;4.20;;;3.40;;
81529;SDS011;70974;45.808;15.808;2023-07-08T11:04:38;5.00;;;3.40;;
81529;SDS011;70974;45.808;15.808;2023-07-08T11:09:42;5.43;;;3.72;;
81529;SDS011;70974;45.808;15.808;2023-07-08T11:12:27;6.63;;;3.95;;
81529;SDS011;70974;45.808;15.808;2023-07-08T11:17:30;5.60;;;3.78;;
81529;SDS011;70974;45.808;15.808;2023-07-08T11:20:12;5.00;;;3.47;;
81529;SDS011;70974;45.808;15.808;2023-07-08T11:22:42;6.95;;;3.88;;
81529;SDS011;70974;45.808;15.808;2023-07-08T11:25:15;5.03;;;3.58;;
81529;SDS011;70974;45.808;15.808;2023-07-08T11:27:42;8.45;;;5.70;;
81529;SDS011;70974;45.808;15.808;2023-07-08T11:32:37;6.40;;;3.92;;
81529;SDS011;70974;45.808;15.808;2023-07-08T11:35:04;8.02;;;5.40;;
81529;SDS011;70974;45.808;15.808;2023-07-08T11:37:31;6.95;;;4.13;;
81529;SDS011;70974;45.808;15.808;2023-07-08T11:39:58;6.63;;;3.60;;
81529;SDS011;70974;45.808;15.808;2023-07-08T11:42:59;6.07;;;3.38;;
81529;SDS011;70974;45.808;15.808;2023-07-08T11:47:46;5.22;;;3.63;;
81529;SDS011;70974;45.808;15.808;2023-07-08T11:50:29;5.88;;;3.90;;
81529;SDS011;70974;45.808;15.808;2023-07-08T11:52:59;5.68;;;4.15;;
81529;SDS011;70974;45.808;15.808;2023-07-08T11:55:26;7.70;;;5.70;;
81529;SDS011;70974;45.808;15.808;2023-07-08T11:57:54;15.90;;;10.15;;
81529;SDS011;70974;45.808;15.808;2023-07-08T12:00:23;6.03;;;3.92;;
81529;SDS011;70974;45.808;15.808;2023-07-08T12:05:15;6.93;;;3.72;;
81529;SDS011;70974;45.808;15.808;2023-07-08T12:07:47;6.35;;;3.95;;
81529;SDS011;70974;45.808;15.808;2023-07-08T12:12:43;6.55;;;3.40;;
81529;SDS011;70974;45.808;15.808;2023-07-08T12:17:37;7.30;;;3.97;;
81529;SDS011;70974;45.808;15.808;2023-07-08T12:20:06;7.03;;;3.30;;
81529;SDS011;70974;45.808;15.808;2023-07-08T12:22:33;6.07;;;4.07;;
81529;SDS011;70974;45.808;15.808;2023-07-08T12:24:59;7.50;;;4.63;;
81529;SDS011;70974;45.808;15.808;2023-07-08T12:27:30;6.32;;;5.20;;
81529;SDS011;70974;45.808;15.808;2023-07-08T12:29:56;9.68;;;6.80;;
81529;SDS011;70974;45.808;15.808;2023-07-08T12:32:22;6.10;;;3.60;;
81529;SDS011;70974;45.808;15.808;2023-07-08T12:34:50;4.88;;;3.35;;
81529;SDS011;70974;45.808;15.808;2023-07-08T12:37:17;5.35;;;3.80;;
81529;SDS011;70974;45.808;15.808;2023-07-08T12:39:43;5.30;;;3.50;;
81529;SDS011;70974;45.808;15.808;2023-07-08T12:42:10;6.25;;;3.80;;
81529;SDS011;70974;45.808;15.808;2023-07-08T12:44:38;5.05;;;3.67;;
81529;SDS011;70974;45.808;15.808;2023-07-08T12:47:07;7.53;;;4.88;;
81529;SDS011;70974;45.808;15.808;2023-07-08T12:49:34;5.28;;;3.83;;
81529;SDS011;70974;45.808;15.808;2023-07-08T12:52:00;5.03;;;3.60;;
81529;SDS011;70974;45.808;15.808;2023-07-08T12:54:27;6.03;;;3.85;;
81529;SDS011;70974;45.808;15.808;2023-07-08T12:56:53;5.32;;;3.38;;
81529;SDS011;70974;45.808;15.808;2023-07-08T12:59:21;4.35;;;3.10;;
81529;SDS011;70974;45.808;15.808;2023-07-08T13:01:48;5.63;;;3.70;;
81529;SDS011;70974;45.808;15.808;2023-07-08T13:04:15;5.78;;;3.58;;
81529;SDS011;70974;45.808;15.808;2023-07-08T13:06:42;5.53;;;3.47;;
81529;SDS011;70974;45.808;15.808;2023-07-08T13:11:53;4.25;;;3.28;;
81529;SDS011;70974;45.808;15.808;2023-07-08T13:16:46;7.32;;;3.67;;
81529;SDS011;70974;45.808;15.808;2023-07-08T13:19:14;6.15;;;4.03;;
81529;SDS011;70974;45.808;15.808;2023-07-08T13:21:40;7.47;;;3.63;;
81529;SDS011;70974;45.808;15.808;2023-07-08T13:24:09;6.63;;;3.63;;
81529;SDS011;70974;45.808;15.808;2023-07-08T13:26:36;4.85;;;3.83;;
81529;SDS011;70974;45.808;15.808;2023-07-08T13:29:16;6.60;;;3.80;;
81529;SDS011;70974;45.808;15.808;2023-07-08T13:31:46;4.90;;;3.90;;
81529;SDS011;70974;45.808;15.808;2023-07-08T13:34:17;5.25;;;3.83;;
81529;SDS011;70974;45.808;15.808;2023-07-08T13:36:44;7.45;;;3.72;;
81529;SDS011;70974;45.808;15.808;2023-07-08T13:39:27;4.72;;;3.22;;
81529;SDS011;70974;45.808;15.808;2023-07-08T13:41:55;6.28;;;3.80;;
81529;SDS011;70974;45.808;15.808;2023-07-08T13:44:21;5.78;;;4.30;;
81529;SDS011;70974;45.808;15.808;2023-07-08T13:46:52;5.80;;;3.78;;
81529;SDS011;70974;45.808;15.808;2023-07-08T13:49:29;5.30;;;3.47;;
81529;SDS011;70974;45.808;15.808;2023-07-08T13:52:06;4.85;;;3.50;;
81529;SDS011;70974;45.808;15.808;2023-07-08T13:54:34;6.97;;;3.90;;
81529;SDS011;70974;45.808;15.808;2023-07-08T13:57:01;5.82;;;3.80;;
81529;SDS011;70974;45.808;15.808;2023-07-08T13:59:27;6.72;;;4.18;;
81529;SDS011;70974;45.808;15.808;2023-07-08T14:01:54;6.57;;;3.85;;
81529;SDS011;70974;45.808;15.808;2023-07-08T14:04:23;6.97;;;3.85;;
81529;SDS011;70974;45.808;15.808;2023-07-08T14:06:51;7.80;;;3.80;;
81529;SDS011;70974;45.808;15.808;2023-07-08T14:09:18;5.18;;;3.83;;
81529;SDS011;70974;45.808;15.808;2023-07-08T14:11:45;5.45;;;3.70;;
81529;SDS011;70974;45.808;15.808;2023-07-08T14:14:12;6.70;;;4.00;;
81529;SDS011;70974;45.808;15.808;2023-07-08T14:16:39;5.72;;;3.80;;
81529;SDS011;70974;45.808;15.808;2023-07-08T14:19:06;7.18;;;3.90;;
81529;SDS011;70974;45.808;15.808;2023-07-08T14:21:33;5.75;;;3.67;;
81529;SDS011;70974;45.808;15.808;2023-07-08T14:24:00;5.00;;;3.80;;
81529;SDS011;70974;45.808;15.808;2023-07-08T14:26:28;7.93;;;3.80;;
81529;SDS011;70974;45.808;15.808;2023-07-08T14:28:54;6.13;;;3.88;;
81529;SDS011;70974;45.808;15.808;2023-07-08T14:31:24;6.35;;;3.53;;
81529;SDS011;70974;45.808;15.808;2023-07-08T14:33:54;6.38;;;4.40;;
81529;SDS011;70974;45.808;15.808;2023-07-08T14:36:23;7.60;;;5.03;;
81529;SDS011;70974;45.808;15.808;2023-07-08T14:38:49;6.47;;;4.20;;
81529;SDS011;70974;45.808;15.808;2023-07-08T14:41:15;8.27;;;4.20;;
81529;SDS011;70974;45.808;15.808;2023-07-08T14:43:41;7.28;;;4.35;;
81529;SDS011;70974;45.808;15.808;2023-07-08T14:46:08;9.13;;;3.72;;
81529;SDS011;70974;45.808;15.808;2023-07-08T14:48:35;6.20;;;3.88;;
81529;SDS011;70974;45.808;15.808;2023-07-08T14:51:01;7.72;;;4.10;;
81529;SDS011;70974;45.808;15.808;2023-07-08T14:53:27;8.63;;;3.65;;
81529;SDS011;70974;45.808;15.808;2023-07-08T14:55:54;6.72;;;3.70;;
81529;SDS011;70974;45.808;15.808;2023-07-08T14:58:26;8.10;;;3.72;;
81529;SDS011;70974;45.808;15.808;2023-07-08T15:00:55;6.82;;;4.03;;
81529;SDS011;70974;45.808;15.808;2023-07-08T15:03:21;6.65;;;3.90;;
81529;SDS011;70974;45.808;15.808;2023-07-08T15:05:48;6.75;;;4.18;;
81529;SDS011;70974;45.808;15.808;2023-07-08T15:08:14;5.32;;;3.72;;
81529;SDS011;70974;45.808;15.808;2023-07-08T15:10:41;5.10;;;3.67;;
81529;SDS011;70974;45.808;15.808;2023-07-08T15:13:09;6.55;;;3.50;;
81529;SDS011;70974;45.808;15.808;2023-07-08T15:15:36;5.32;;;3.72;;
81529;SDS011;70974;45.808;15.808;2023-07-08T15:18:02;5.28;;;3.65;;
81529;SDS011;70974;45.808;15.808;2023-07-08T15:20:32;4.80;;;3.50;;
81529;SDS011;70974;45.808;15.808;2023-07-08T15:22:58;6.00;;;3.90;;
81529;SDS011;70974;45.808;15.808;2023-07-08T15:25:24;8.30;;;4.57;;
81529;SDS011;70974;45.808;15.808;2023-07-08T15:27:54;5.57;;;4.15;;
81529;SDS011;70974;45.808;15.808;2023-07-08T15:30:21;7.15;;;3.92;;
81529;SDS011;70974;45.808;15.808;2023-07-08T15:32:47;6.75;;;4.18;;
81529;SDS011;70974;45.808;15.808;2023-07-08T15:35:15;5.70;;;4.15;;
81529;SDS011;70974;45.808;15.808;2023-07-08T15:37:42;5.50;;;4.03;;
81529;SDS011;70974;45.808;15.808;2023-07-08T15:40:08;5.55;;;3.90;;
81529;SDS011;70974;45.808;15.808;2023-07-08T15:42:36;6.05;;;3.78;;